^^
Datos históricos de la estación: Murcia-Puente Tocinos
Diario Informe para Diciembre 30, 2019 Unidades:  Métrico    Ingés   Ambas
Diario Semanal Mensual Anual
  Máxima: Mínima: Promedio:
Temperatura: 15.6 °C 7.9 °C 11 °C
Punto de rocio: 8.4 °C 5.9 °C 7.2 °C
Humedad: 90% 58% 78%
Velocidad viento: 9.5km/h 0km/h 4.2km/h
Racha viento: 16.7km/h - -
Viento- - SSE
Presión: 1033.1 hPa 1029.9 hPa -
Precipitación: 0.0 mm    
 
 
Tabla de datos para Diciembre 30, 2019
Hora Temperatura Punto de rocio Presión Viento Velocidad viento Racha viento Humedad Intensidad lluvia(por hora) Nubes
00:04 10.4 °C 8.3 °C 1030.3 hPa Calm     87% 0.0 mm
00:09 10.4 °C 8.3 °C 1030.4 hPa Calm     87% 0.0 mm
00:14 10.4 °C 8.3 °C 1030.4 hPa Calm     87% 0.0 mm
00:19 10.4 °C 8.3 °C 1030.4 hPa Calm     87% 0.0 mm
00:24 10.3 °C 8.3 °C 1030.4 hPa Calm     87% 0.0 mm
00:29 10.3 °C 8.3 °C 1030.3 hPa Calm     87% 0.0 mm
00:34 10.4 °C 8.3 °C 1030.3 hPa Calm     87% 0.0 mm
00:39 10.4 °C 8.4 °C 1030.3 hPa Calm   2.3 km/h 87.1% 0.0 mm
00:44 10.4 °C 8.4 °C 1030.1 hPa Calm   1.6 km/h 87.2% 0.0 mm
00:49 10.4 °C 8.3 °C 1030.1 hPa Calm     87% 0.0 mm
00:54 10.4 °C 8.3 °C 1030.1 hPa Calm     87% 0.0 mm
00:59 10.4 °C 8.3 °C 1030.1 hPa Calm     87% 0.0 mm
01:04 10.4 °C 8.4 °C 1030.1 hPa Calm     87.2% 0.0 mm
01:09 10.3 °C 8.2 °C 1030.1 hPa Calm     87% 0.0 mm
01:14 10.3 °C 8.2 °C 1030.0 hPa Calm     87% 0.0 mm
01:19 10.2 °C 8.1 °C 1030.0 hPa Calm     87% 0.0 mm
01:24 10.1 °C 8 °C 1030.0 hPa Calm     87% 0.0 mm
01:29 9.9 °C 7.9 °C 1030.0 hPa Calm     87% 0.0 mm
01:34 9.8 °C 7.9 °C 1030.0 hPa Calm     87.9% 0.0 mm
01:39 9.8 °C 7.9 °C 1030.0 hPa Calm     88% 0.0 mm
01:44 9.7 °C 7.9 °C 1030.0 hPa Calm   7.6 km/h 88% 0.0 mm
01:49 9.7 °C 7.8 °C 1030.0 hPa Calm   8 km/h 88% 0.0 mm
01:54 9.6 °C 7.7 °C 1030.0 hPa SE 2.9 km/h 8 km/h 88% 0.0 mm
01:59 9.5 °C 7.6 °C 1029.9 hPa SE 4.7 km/h 8 km/h 88% 0.0 mm
02:04 9.4 °C 7.7 °C 1029.9 hPa SE 4.1 km/h 7.6 km/h 89% 0.0 mm
02:09 9.4 °C 7.7 °C 1030.0 hPa SSE 3.9 km/h 8 km/h 89% 0.0 mm
02:14 9.3 °C 7.6 °C 1030.0 hPa SSE 4.5 km/h 8.4 km/h 89% 0.0 mm
02:19 9.3 °C 7.6 °C 1030.0 hPa SSE 5 km/h 8 km/h 89% 0.0 mm
02:24 9.3 °C 7.6 °C 1030.0 hPa Sur 5 km/h 8 km/h 89% 0.0 mm
02:29 9.3 °C 7.6 °C 1029.9 hPa SSE 5 km/h 9.3 km/h 89% 0.0 mm
02:34 9.3 °C 7.6 °C 1029.9 hPa SSE 5 km/h 9.7 km/h 89% 0.0 mm
02:39 9.3 °C 7.6 °C 1029.9 hPa SSE 5 km/h 8 km/h 89% 0.0 mm
02:44 9.3 °C 7.6 °C 1029.9 hPa SSE 4.3 km/h 8 km/h 89% 0.0 mm
02:49 9.3 °C 7.6 °C 1029.9 hPa SSE 3.9 km/h 5.6 km/h 89% 0.0 mm
02:54 9.3 °C 7.6 °C 1030.2 hPa SSE 3.5 km/h 5.6 km/h 89% 0.0 mm
02:59 9.3 °C 7.5 °C 1030.2 hPa SSE 3.2 km/h 5.8 km/h 89% 0.0 mm
03:04 9.2 °C 7.5 °C 1030.2 hPa SSE 3.2 km/h 7.4 km/h 89% 0.0 mm
03:09 9.2 °C 7.5 °C 1030.2 hPa SSE 3.2 km/h 8 km/h 89% 0.0 mm
03:14 9.2 °C 7.5 °C 1030.2 hPa SSE 3.2 km/h 6.4 km/h 89% 0.0 mm
03:19 9.2 °C 7.5 °C 1030.2 hPa SSE 3.2 km/h 5.6 km/h 89% 0.0 mm
03:24 9.2 °C 7.5 °C 1030.3 hPa SSE 3 km/h 5.8 km/h 89% 0.0 mm
03:29 9.2 °C 7.5 °C 1030.3 hPa SSE 2.9 km/h 6.4 km/h 89% 0.0 mm
03:34 9.2 °C 7.5 °C 1030.3 hPa SE 3.1 km/h 5.8 km/h 89% 0.0 mm
03:39 9.2 °C 7.3 °C 1030.4 hPa SE 3.2 km/h 6.4 km/h 88.1% 0.0 mm
03:44 9.1 °C 7.3 °C 1030.4 hPa SE 3.6 km/h 6.4 km/h 88.5% 0.0 mm
03:49 9 °C 7.2 °C 1030.4 hPa SSE 3.9 km/h 8.4 km/h 89% 0.0 mm
03:54 8.9 °C 7.2 °C 1030.4 hPa SSE 4.5 km/h 8 km/h 89% 0.0 mm
03:59 8.9 °C 7.2 °C 1030.4 hPa SE 5 km/h 9.3 km/h 89% 0.0 mm
04:04 8.9 °C 7.2 °C 1030.4 hPa SSE 5 km/h 9.7 km/h 89% 0.0 mm
04:09 8.9 °C 7.3 °C 1030.5 hPa SSE 5 km/h 8.4 km/h 89.6% 0.0 mm
04:14 8.9 °C 7.3 °C 1030.5 hPa SSE 5 km/h 8 km/h 90% 0.0 mm
04:19 8.9 °C 7.3 °C 1030.5 hPa Sur 5 km/h 8 km/h 90% 0.0 mm
04:24 8.9 °C 7.3 °C 1030.5 hPa SSO 4.8 km/h 8.4 km/h 90% 0.0 mm
04:29 9 °C 7.3 °C 1030.5 hPa SSO 4.7 km/h 9.5 km/h 89.2% 0.0 mm
04:34 9.1 °C 7.4 °C 1030.5 hPa Sur 4.9 km/h 9.7 km/h 89% 0.0 mm
04:39 9.2 °C 7.3 °C 1030.6 hPa Sur 5 km/h 8 km/h 88.2% 0.0 mm
04:44 9.2 °C 7.3 °C 1030.6 hPa SO 4.3 km/h 8.4 km/h 88% 0.0 mm
04:49 9.2 °C 7.2 °C 1030.6 hPa SO 3.9 km/h 9.5 km/h 87.2% 0.0 mm
04:54 9.3 °C 7.1 °C 1030.6 hPa OSO 5 km/h 10.3 km/h 86.4% 0.0 mm
04:59 9.3 °C 7.1 °C 1030.5 hPa SO 5.8 km/h 11.3 km/h 86% 0.0 mm
05:04 9.3 °C 6.9 °C 1030.5 hPa SO 6.5 km/h 11.3 km/h 85% 0.0 mm
05:09 9.3 °C 6.9 °C 1030.6 hPa SO 6.9 km/h 11.3 km/h 85% 0.0 mm
05:14 9.4 °C 7 °C 1030.6 hPa SO 6.6 km/h 11.1 km/h 85% 0.0 mm
05:19 9.4 °C 6.8 °C 1030.6 hPa SO 6.5 km/h 13 km/h 84% 0.0 mm
05:24 9.4 °C 6.8 °C 1030.6 hPa SO 6.5 km/h 12.9 km/h 84% 0.0 mm
05:29 9.5 °C 6.9 °C 1030.5 hPa SSO 6.5 km/h 13 km/h 83.9% 0.0 mm
05:34 9.5 °C 6.8 °C 1030.5 hPa SSO 6.5 km/h 12.9 km/h 83% 0.0 mm
05:39 9.5 °C 6.8 °C 1030.5 hPa SSO 6.5 km/h 11.3 km/h 83% 0.0 mm
05:44 9.4 °C 6.7 °C 1030.5 hPa SSO 5.6 km/h 9.7 km/h 83% 0.0 mm
05:49 9.4 °C 6.7 °C 1030.5 hPa SSO 5 km/h 11.1 km/h 83% 0.0 mm
05:54 9.3 °C 6.6 °C 1030.7 hPa SSO 5.9 km/h 13 km/h 83% 0.0 mm
05:59 9.3 °C 6.7 °C 1030.7 hPa SSO 6.5 km/h 12.9 km/h 83.6% 0.0 mm
06:04 9.2 °C 6.6 °C 1030.7 hPa SO 6.5 km/h 11.9 km/h 84% 0.0 mm
06:09 9.2 °C 6.6 °C 1030.7 hPa SSO 6.5 km/h 11.3 km/h 84% 0.0 mm
06:14 9.2 °C 6.6 °C 1030.6 hPa OSO 5.6 km/h 11.3 km/h 84% 0.0 mm
06:19 9.1 °C 6.6 °C 1030.6 hPa OSO 5 km/h 9.7 km/h 84% 0.0 mm
06:24 9.1 °C 6.6 °C 1030.8 hPa OSO 5 km/h 9.7 km/h 84% 0.0 mm
06:29 9.1 °C 6.6 °C 1030.8 hPa OSO 5 km/h 8 km/h 84% 0.0 mm
06:34 9.1 °C 6.5 °C 1030.8 hPa SO 4.8 km/h 8 km/h 84% 0.0 mm
06:39 9.1 °C 6.6 °C 1030.8 hPa SO 4.6 km/h 8.4 km/h 84% 0.0 mm
06:44 9 °C 6.5 °C 1030.8 hPa OSO 4.7 km/h 9.3 km/h 84% 0.0 mm
06:49 9 °C 6.4 °C 1030.8 hPa SO 4.7 km/h 11.1 km/h 84% 0.0 mm
06:54 8.9 °C 6.4 °C 1030.8 hPa SSO 4.9 km/h 11.3 km/h 84% 0.0 mm
06:59 8.9 °C 6.3 °C 1030.8 hPa SSO 5 km/h 9.5 km/h 84% 0.0 mm
07:04 8.9 °C 6.3 °C 1030.8 hPa SSO 5.5 km/h 9.7 km/h 84% 0.0 mm
07:09 8.9 °C 6.3 °C 1031.0 hPa SSO 5.8 km/h 9.7 km/h 84% 0.0 mm
07:14 8.8 °C 6.3 °C 1031.0 hPa Sur 5.3 km/h 9.5 km/h 84% 0.0 mm
07:19 8.7 °C 6.2 °C 1031.0 hPa Sur 5 km/h 10 km/h 84% 0.0 mm
07:24 8.6 °C 6.2 °C 1031.2 hPa Sur 5.9 km/h 9.7 km/h 84.9% 0.0 mm
07:29 8.6 °C 6.2 °C 1031.2 hPa Sur 6.5 km/h 10.3 km/h 85% 0.0 mm
07:34 8.4 °C 6 °C 1031.2 hPa Sur 6.7 km/h 13 km/h 85% 0.0 mm
07:39 8.2 °C 6 °C 1031.4 hPa Sur 6.9 km/h 13 km/h 85.8% 0.0 mm
07:44 8.2 °C 6 °C 1031.4 hPa Sur 7.3 km/h 12.9 km/h 86% 0.0 mm
07:49 8.1 °C 5.9 °C 1031.4 hPa Sur 7.6 km/h 11.9 km/h 86% 0.0 mm
07:54 8 °C 6 °C 1031.5 hPa SSE 7.2 km/h 11.3 km/h 86.9% 0.0 mm
07:59 7.9 °C 5.9 °C 1031.5 hPa Sur 6.9 km/h 11.3 km/h 87% 0.0 mm
08:04 7.9 °C 5.9 °C 1031.5 hPa Sur 7.4 km/h 11.3 km/h 87% 0.0 mm
08:09 7.9 °C 5.9 °C 1031.6 hPa Sur 7.6 km/h 11.9 km/h 87% 0.0 mm
08:14 7.9 °C 5.9 °C 1031.6 hPa Sur 7.2 km/h 11.3 km/h 87% 0.0 mm
08:19 8 °C 6 °C 1031.6 hPa SSO 6.9 km/h 9.7 km/h 87% 0.0 mm
08:24 8.1 °C 6.1 °C 1031.8 hPa Sur 6.2 km/h 8 km/h 87% 0.0 mm
08:29 8.1 °C 6 °C 1031.8 hPa SSE 5.8 km/h 10 km/h 86.4% 0.0 mm
08:34 8.2 °C 6 °C 1031.8 hPa Sur 5.3 km/h 9.7 km/h 86% 0.0 mm
08:39 8.2 °C 6 °C 1031.9 hPa Sur 5 km/h 8.7 km/h 86% 0.0 mm
08:44 8.3 °C 6.1 °C 1031.9 hPa Sur 5 km/h 9.7 km/h 86% 0.0 mm
08:49 8.3 °C 6.1 °C 1031.9 hPa SSE 5 km/h 9.7 km/h 86% 0.0 mm
08:54 8.4 °C 6.1 °C 1032.2 hPa SSE 5 km/h 9.3 km/h 85.3% 0.0 mm
08:59 8.5 °C 6.1 °C 1032.2 hPa Sur 5 km/h 9.7 km/h 85% 0.0 mm
09:04 8.6 °C 6.2 °C 1032.2 hPa Sur 4.8 km/h 8 km/h 85% 0.0 mm
09:09 8.6 °C 6.2 °C 1032.3 hPa SSO 4.7 km/h 8 km/h 85% 0.0 mm
09:14 8.7 °C 6.3 °C 1032.3 hPa SSO 4.2 km/h 8.4 km/h 85% 0.0 mm
09:19 8.8 °C 6.2 °C 1032.3 hPa SO 3.9 km/h 8.4 km/h 84.1% 0.0 mm
09:24 8.9 °C 6.3 °C 1032.3 hPa SO 4.6 km/h 8 km/h 84% 0.0 mm
09:29 8.9 °C 6.3 °C 1032.3 hPa SSO 5 km/h 9.3 km/h 83.6% 0.0 mm
09:34 9 °C 6.3 °C 1032.3 hPa SO 4.8 km/h 9.7 km/h 83% 0.0 mm
09:39 9.1 °C 6.4 °C 1032.4 hPa OSO 4.7 km/h 13 km/h 82.9% 0.0 mm
09:44 9.1 °C 6.3 °C 1032.4 hPa SSO 5.3 km/h 12.9 km/h 82.4% 0.0 mm
09:49 9.2 °C 6.3 °C 1032.4 hPa SSO 5.8 km/h 9.7 km/h 82.2% 0.0 mm
09:54 9.2 °C 6.3 °C 1032.6 hPa SO 4.2 km/h 8 km/h 82% 0.0 mm
09:59 9.3 °C 6.3 °C 1032.6 hPa OSO 3.2 km/h 7.4 km/h 82% 0.0 mm
10:04 9.3 °C 6.4 °C 1032.6 hPa OSO 3.2 km/h 8 km/h 82% 0.0 mm
10:09 9.3 °C 6.4 °C 1032.7 hPa Oeste 3.2 km/h 8 km/h 82% 0.0 mm
10:14 9.4 °C 6.5 °C 1032.7 hPa OSO 3.2 km/h 8.7 km/h 82% 0.0 mm
10:19 9.5 °C 6.5 °C 1032.7 hPa Sur 3.2 km/h 9.7 km/h 81.5% 0.0 mm
10:24 9.7 °C 6.6 °C 1033.0 hPa Sur 3.6 km/h 9.5 km/h 81.4% 0.0 mm
10:29 9.7 °C 6.6 °C 1033.0 hPa SSO 3.9 km/h 9.7 km/h 81% 0.0 mm
10:34 9.8 °C 6.6 °C 1033.0 hPa SSE 4.4 km/h 8.4 km/h 80.9% 0.0 mm
10:39 9.8 °C 6.5 °C 1033.1 hPa Sur 4.7 km/h 8 km/h 80.3% 0.0 mm
10:44 9.9 °C 6.7 °C 1033.1 hPa SSO 4.8 km/h 8 km/h 80.3% 0.0 mm
10:49 10 °C 6.7 °C 1033.1 hPa SO 5 km/h 8 km/h 80% 0.0 mm
10:54 10.2 °C 6.8 °C 1033.1 hPa OSO 4.8 km/h 9.3 km/h 79.6% 0.0 mm
10:59 10.2 °C 6.8 °C 1033.0 hPa OSO 4.7 km/h 9.7 km/h 79% 0.0 mm
11:04 10.3 °C 6.8 °C 1033.0 hPa OSO 4.9 km/h 11.9 km/h 78.8% 0.0 mm
11:09 10.4 °C 6.7 °C 1033.1 hPa OSO 5 km/h 11.3 km/h 78% 0.0 mm
11:14 10.4 °C 6.8 °C 1033.1 hPa OSO 6.2 km/h 11.9 km/h 78.4% 0.0 mm
11:19 10.7 °C 7 °C 1033.1 hPa OSO 6.9 km/h 11.3 km/h 78% 0.0 mm
11:24 10.7 °C 7 °C 1033.1 hPa OSO 7.3 km/h 12.2 km/h 78% 0.0 mm
11:29 10.7 °C 6.9 °C 1033.1 hPa OSO 7.6 km/h 13 km/h 77.5% 0.0 mm
11:34 10.8 °C 7.1 °C 1033.1 hPa OSO 7.2 km/h 11.3 km/h 78% 0.0 mm
11:39 10.8 °C 7.1 °C 1033.1 hPa OSO 6.9 km/h 9.7 km/h 78% 0.0 mm
11:44 10.9 °C 7 °C 1033.0 hPa SO 5.6 km/h 9.5 km/h 77.1% 0.0 mm
11:49 11.1 °C 7.2 °C 1033.0 hPa Sur 4.7 km/h 9.7 km/h 77% 0.0 mm
11:54 11.2 °C 7.2 °C 1033.0 hPa SO 4.8 km/h 8 km/h 76.3% 0.0 mm
11:59 11.3 °C 7.2 °C 1033.0 hPa OSO 5 km/h 13 km/h 76.2% 0.0 mm
12:04 11.4 °C 7.3 °C 1033.0 hPa OSO 5.9 km/h 15.6 km/h 75.9% 0.0 mm
12:09 11.7 °C 7.4 °C 1033.0 hPa Oeste 6.5 km/h 16.7 km/h 75% 0.0 mm
12:14 11.8 °C 7.4 °C 1032.6 hPa OSO 8.4 km/h 16.1 km/h 74.6% 0.0 mm
12:19 11.9 °C 7.4 °C 1032.6 hPa OSO 9.5 km/h 14.5 km/h 74% 0.0 mm
12:24 12.1 °C 7.6 °C 1032.6 hPa SO 9 km/h 13 km/h 73.8% 0.0 mm
12:29 12.3 °C 7.6 °C 1032.4 hPa OSO 8.7 km/h 11.3 km/h 73.1% 0.0 mm
12:34 12.5 °C 7.6 °C 1032.4 hPa SO 7 km/h 11.9 km/h 72.4% 0.0 mm
12:39 12.7 °C 7.6 °C 1032.4 hPa SSO 5.8 km/h 14.8 km/h 71.3% 0.0 mm
12:44 12.7 °C 7.6 °C 1032.2 hPa SSO 7.4 km/h 14.5 km/h 71% 0.0 mm
12:49 12.7 °C 7.6 °C 1032.2 hPa Sur 8.4 km/h 14.5 km/h 71.1% 0.0 mm
12:54 12.9 °C 7.8 °C 1032.2 hPa SO 7.5 km/h 14.8 km/h 71% 0.0 mm
12:59 12.9 °C 7.8 °C 1031.9 hPa OSO 6.9 km/h 14.5 km/h 71% 0.0 mm
13:04 13.1 °C 7.9 °C 1031.9 hPa SSO 5.6 km/h 9.7 km/h 71% 0.0 mm
13:09 13.3 °C 7.9 °C 1031.9 hPa SSO 5 km/h 11.9 km/h 69.5% 0.0 mm
13:14 13.6 °C 7.9 °C 1031.7 hPa SO 5.5 km/h 13 km/h 68.9% 0.0 mm
13:19 13.5 °C 7.7 °C 1031.7 hPa SO 5.8 km/h 13 km/h 68% 0.0 mm
13:24 13.4 °C 7.7 °C 1031.7 hPa SSO 6.2 km/h 11.3 km/h 68.3% 0.0 mm
13:29 13.6 °C 7.9 °C 1031.6 hPa SO 6.5 km/h 9.7 km/h 68.6% 0.0 mm
13:34 13.8 °C 7.9 °C 1031.6 hPa SO 5.2 km/h 9.7 km/h 67.7% 0.0 mm
13:39 14.1 °C 7.8 °C 1031.6 hPa SSO 3.9 km/h 10 km/h 65.8% 0.0 mm
13:44 14.2 °C 7.7 °C 1031.4 hPa Sur 3.9 km/h 9.7 km/h 65% 0.0 mm
13:49 14.2 °C 7.7 °C 1031.4 hPa SSO 3.9 km/h 11.1 km/h 65% 0.0 mm
13:54 14.1 °C 7.8 °C 1031.4 hPa Sur 5.1 km/h 11.3 km/h 65.9% 0.0 mm
13:59 13.9 °C 7.7 °C 1031.2 hPa Sur 5.8 km/h 11.3 km/h 66% 0.0 mm
14:04 14 °C 7.8 °C 1031.2 hPa SSE 6.2 km/h 11.3 km/h 66.4% 0.0 mm
14:09 14.1 °C 7.8 °C 1031.2 hPa SE 6.5 km/h 11.3 km/h 66% 0.0 mm
14:14 14.1 °C 7.8 °C 1031.0 hPa SE 6.1 km/h 11.9 km/h 65.6% 0.0 mm
14:19 14.2 °C 7.8 °C 1031.0 hPa ESE 5.8 km/h 11.3 km/h 65.3% 0.0 mm
14:24 14.2 °C 7.7 °C 1031.0 hPa ESE 5.8 km/h 11.3 km/h 65% 0.0 mm
14:29 14.2 °C 7.7 °C 1030.8 hPa SE 5.8 km/h 11.3 km/h 64.8% 0.0 mm
14:34 14.2 °C 7.7 °C 1030.8 hPa SSE 6.5 km/h 11.1 km/h 65% 0.0 mm
14:39 14.2 °C 7.7 °C 1030.8 hPa SSE 6.9 km/h 11.3 km/h 64.8% 0.0 mm
14:44 14.2 °C 7.5 °C 1030.7 hPa SSE 6.6 km/h 9.7 km/h 64% 0.0 mm
14:49 14.2 °C 7.3 °C 1030.7 hPa SSE 6.5 km/h 9.7 km/h 63.1% 0.0 mm
14:54 14.4 °C 7.2 °C 1030.7 hPa SSE 4.9 km/h 8 km/h 62% 0.0 mm
14:59 14.7 °C 7.1 °C 1030.6 hPa SSE 3.9 km/h 8.4 km/h 60.7% 0.0 mm
15:04 14.8 °C 6.8 °C 1030.6 hPa ONO 3.4 km/h 8.4 km/h 59% 0.0 mm
15:09 14.8 °C 6.9 °C 1030.6 hPa Oeste 3.2 km/h 8 km/h 59% 0.0 mm
15:14 15 °C 6.9 °C 1030.5 hPa SO 3.2 km/h 5.8 km/h 58.4% 0.0 mm
15:19 15.2 °C 7 °C 1030.5 hPa Sur 3.2 km/h 6.4 km/h 58.3% 0.0 mm
15:24 15.2 °C 7 °C 1030.5 hPa Este 3 km/h 10 km/h 58% 0.0 mm
15:29 15.3 °C 7.2 °C 1030.4 hPa SE 2.9 km/h 9.7 km/h 58.6% 0.0 mm
15:34 15.4 °C 7.2 °C 1030.4 hPa Este 3.1 km/h 10 km/h 58.2% 0.0 mm
15:39 15.3 °C 7.2 °C 1030.4 hPa Este 3.2 km/h 9.7 km/h 58.5% 0.0 mm
15:44 15.2 °C 7.2 °C 1030.4 hPa ESE 3.6 km/h 8 km/h 59% 0.0 mm
15:49 15.3 °C 7.3 °C 1030.4 hPa Este 3.9 km/h 7.4 km/h 59% 0.0 mm
15:54 15.4 °C 7.4 °C 1030.5 hPa NE 3.3 km/h 8 km/h 59% 0.0 mm
15:59 15.4 °C 7.4 °C 1030.5 hPa NO 2.9 km/h 6.4 km/h 59% 0.0 mm
16:04 15.5 °C 7.4 °C 1030.5 hPa ESE 2.9 km/h 7.6 km/h 58.6% 0.0 mm
16:09 15.3 °C 7.3 °C 1030.5 hPa ESE 2.9 km/h 8 km/h 59% 0.0 mm
16:14 15.3 °C 7.5 °C 1030.5 hPa ESE 3.4 km/h 8 km/h 59.8% 0.0 mm
16:19 15.3 °C 7.6 °C 1030.5 hPa Este 3.9 km/h 6.4 km/h 60% 0.0 mm
16:24 15.4 °C 7.7 °C 1030.5 hPa ESE 2.3 km/h 3.7 km/h 60% 0.0 mm
16:29 15.6 °C 7.6 °C 1030.4 hPa Calm   4.7 km/h 59.1% 0.0 mm
16:34 15.6 °C 7.6 °C 1030.4 hPa Este 1.3 km/h 5.8 km/h 59% 0.0 mm
16:39 15.6 °C 7.6 °C 1030.5 hPa Este 2.2 km/h 6.4 km/h 59% 0.0 mm
16:44 15.4 °C 7.5 °C 1030.5 hPa ESE 2.6 km/h 7.4 km/h 59.1% 0.0 mm
16:49 15.3 °C 7.5 °C 1030.5 hPa Este 2.9 km/h 8.4 km/h 59.5% 0.0 mm
16:54 15.2 °C 7.5 °C 1030.5 hPa SE 3.5 km/h 8 km/h 60% 0.0 mm
16:59 15.2 °C 7.5 °C 1030.5 hPa Este 3.9 km/h 11.1 km/h 60% 0.0 mm
17:04 15.1 °C 7.4 °C 1030.5 hPa ENE 4.4 km/h 11.3 km/h 60% 0.0 mm
17:09 15 °C 7.3 °C 1030.5 hPa ENE 4.6 km/h 8 km/h 60% 0.0 mm
17:14 14.9 °C 7.3 °C 1030.5 hPa ENE 4.2 km/h 8 km/h 60.3% 0.0 mm
17:19 14.9 °C 7.4 °C 1030.5 hPa Este 3.9 km/h 7.4 km/h 61% 0.0 mm
17:24 14.8 °C 7.3 °C 1030.5 hPa ENE 3.5 km/h 8 km/h 61% 0.0 mm
17:29 14.8 °C 7.3 °C 1030.5 hPa NE 3.2 km/h 7.4 km/h 61% 0.0 mm
17:34 14.8 °C 7.6 °C 1030.5 hPa NE 3.6 km/h 8 km/h 61.9% 0.0 mm
17:39 14.7 °C 7.5 °C 1030.5 hPa NE 3.9 km/h 8.4 km/h 62% 0.0 mm
17:44 14.7 °C 7.5 °C 1030.4 hPa NE 4.5 km/h 9.5 km/h 62.1% 0.0 mm
17:49 14.6 °C 7.6 °C 1030.4 hPa NE 5 km/h 9.7 km/h 63% 0.0 mm
17:54 14.5 °C 7.6 °C 1030.6 hPa ENE 5 km/h 9.7 km/h 63% 0.0 mm
17:59 14.4 °C 7.6 °C 1030.6 hPa ENE 5 km/h 9.7 km/h 63.6% 0.0 mm
18:04 14.4 °C 7.7 °C 1030.6 hPa ESE 4.8 km/h 8.4 km/h 64% 0.0 mm
18:09 14.3 °C 7.8 °C 1030.8 hPa SE 4.6 km/h 8 km/h 65% 0.0 mm
18:14 14.2 °C 8 °C 1030.8 hPa SE 4.7 km/h 9.3 km/h 66.2% 0.0 mm
18:19 14.2 °C 8.1 °C 1030.8 hPa SE 4.7 km/h 9.7 km/h 67% 0.0 mm
18:24 14 °C 8.1 °C 1030.8 hPa SE 4.8 km/h 9.7 km/h 67.8% 0.0 mm
18:29 13.8 °C 8 °C 1030.7 hPa ESE 5 km/h 9.7 km/h 68% 0.0 mm
18:34 13.7 °C 8 °C 1030.7 hPa Este 5 km/h 8 km/h 68.6% 0.0 mm
18:39 13.4 °C 7.8 °C 1030.8 hPa Este 5 km/h 8.4 km/h 69% 0.0 mm
18:44 13.2 °C 7.8 °C 1030.8 hPa ESE 5 km/h 8.4 km/h 69.9% 0.0 mm
18:49 13.1 °C 7.8 °C 1030.8 hPa ESE 5 km/h 8 km/h 70.3% 0.0 mm
18:54 12.9 °C 7.8 °C 1030.9 hPa Este 5 km/h 9.5 km/h 71% 0.0 mm
18:59 12.8 °C 7.7 °C 1030.9 hPa Este 5 km/h 12.2 km/h 71% 0.0 mm
19:04 12.7 °C 7.7 °C 1030.9 hPa Este 5.7 km/h 13 km/h 71.4% 0.0 mm
19:09 12.6 °C 7.6 °C 1030.9 hPa Este 6.5 km/h 9.7 km/h 72% 0.0 mm
19:14 12.4 °C 7.5 °C 1030.9 hPa NE 6.1 km/h 9.7 km/h 72% 0.0 mm
19:19 12.3 °C 7.5 °C 1030.9 hPa NE 5.8 km/h 8 km/h 72.6% 0.0 mm
19:24 12.2 °C 7.5 °C 1031.1 hPa NE 5.1 km/h 8.4 km/h 73% 0.0 mm
19:29 12 °C 7.5 °C 1031.1 hPa NE 4.7 km/h 8 km/h 73.8% 0.0 mm
19:34 11.9 °C 7.5 °C 1031.1 hPa NE 4.7 km/h 8.4 km/h 74.3% 0.0 mm
19:39 11.8 °C 7.5 °C 1031.1 hPa NNE 4.6 km/h 8 km/h 75% 0.0 mm
19:44 11.8 °C 7.6 °C 1031.1 hPa NE 4.7 km/h 8 km/h 75.4% 0.0 mm
19:49 11.7 °C 7.6 °C 1031.1 hPa ENE 4.7 km/h 8 km/h 76% 0.0 mm
19:54 11.7 °C 7.6 °C 1031.1 hPa North 4.2 km/h 8 km/h 76.1% 0.0 mm
19:59 11.4 °C 7.6 °C 1031.1 hPa NNE 3.9 km/h 8 km/h 77.1% 0.0 mm
20:04 11.4 °C 7.7 °C 1031.1 hPa NE 2.8 km/h 3.9 km/h 78% 0.0 mm
20:09 11.3 °C 7.6 °C 1031.1 hPa North 2.2 km/h 5.8 km/h 78% 0.0 mm
20:14 11.1 °C 7.6 °C 1031.0 hPa North 2.7 km/h 6.4 km/h 78.6% 0.0 mm
20:19 11.1 °C 7.6 °C 1031.0 hPa NNE 2.9 km/h 7.4 km/h 79.1% 0.0 mm
20:24 10.9 °C 7.6 °C 1031.1 hPa North 3.1 km/h 8 km/h 80% 0.0 mm
20:29 10.9 °C 7.6 °C 1031.1 hPa NNO 3.2 km/h 8 km/h 80% 0.0 mm
20:34 10.8 °C 7.5 °C 1031.1 hPa North 3.6 km/h 6.4 km/h 80% 0.0 mm
20:39 10.7 °C 7.5 °C 1031.1 hPa NNE 3.9 km/h 8 km/h 80.8% 0.0 mm
20:44 10.7 °C 7.6 °C 1031.0 hPa NNE 4.2 km/h 8 km/h 81% 0.0 mm
20:49 10.7 °C 7.6 °C 1031.0 hPa NNE 4.7 km/h 8 km/h 81% 0.0 mm
20:54 10.7 °C 7.6 °C 1031.1 hPa NNE 4.2 km/h 8 km/h 81.4% 0.0 mm
20:59 10.6 °C 7.7 °C 1031.1 hPa NNE 3.9 km/h 8 km/h 82% 0.0 mm
21:04 10.6 °C 7.7 °C 1031.1 hPa NNE 3.2 km/h 8 km/h 82% 0.0 mm
21:09 10.6 °C 7.7 °C 1031.1 hPa NNE 2.9 km/h 3.9 km/h 82% 0.0 mm
21:14 10.5 °C 7.6 °C 1031.0 hPa NNE 2.5 km/h 4.7 km/h 82% 0.0 mm
21:19 10.5 °C 7.6 °C 1031.0 hPa NNE 2.2 km/h 4.8 km/h 82.3% 0.0 mm
21:24 10.4 °C 7.6 °C 1031.1 hPa NNE 0.9 km/h 4.8 km/h 83% 0.0 mm
21:29 10.4 °C 7.6 °C 1031.1 hPa Calm   5 km/h 82.8% 0.0 mm
21:34 10.3 °C 7.4 °C 1031.1 hPa Oeste 1.4 km/h 5.6 km/h 82.3% 0.0 mm
21:39 10.2 °C 7.5 °C 1031.1 hPa Oeste 2.2 km/h 3.2 km/h 83% 0.0 mm
21:44 10.2 °C 7.4 °C 1031.1 hPa Oeste 0.9 km/h 3.9 km/h 83% 0.0 mm
21:49 10.1 °C 7.4 °C 1031.1 hPa Calm   4.7 km/h 83.5% 0.0 mm
21:54 10.1 °C 7.5 °C 1031.2 hPa Oeste 1.7 km/h 5.8 km/h 84% 0.0 mm
21:59 10.1 °C 7.4 °C 1031.2 hPa Sur 2.9 km/h 7.4 km/h 83.6% 0.0 mm
22:04 10.1 °C 7.5 °C 1031.2 hPa Sur 3.5 km/h 8 km/h 84% 0.0 mm
22:09 10.1 °C 7.5 °C 1031.3 hPa Sur 3.9 km/h 7.4 km/h 84% 0.0 mm
22:14 10.1 °C 7.5 °C 1031.3 hPa Sur 3.9 km/h 8 km/h 84% 0.0 mm
22:19 10.1 °C 7.5 °C 1031.3 hPa Sur 3.9 km/h 8.4 km/h 84% 0.0 mm
22:24 10.1 °C 7.5 °C 1031.3 hPa SSE 4.3 km/h 8 km/h 84% 0.0 mm
22:29 10.1 °C 7.5 °C 1031.3 hPa SSE 5 km/h 8 km/h 84% 0.0 mm
22:34 10.1 °C 7.5 °C 1031.3 hPa SSE 4.3 km/h 8 km/h 83.9% 0.0 mm
22:39 10 °C 7.2 °C 1031.4 hPa SSE 3.9 km/h 6.4 km/h 83% 0.0 mm
22:44 9.9 °C 7.2 °C 1031.4 hPa SSE 3.3 km/h 4.8 km/h 83% 0.0 mm
22:49 9.8 °C 7.1 °C 1031.4 hPa SSE 2.9 km/h 3.9 km/h 83% 0.0 mm
22:54 9.8 °C 7 °C 1031.4 hPa SSE 2.5 km/h 3.9 km/h 83.1% 0.0 mm
22:59 9.7 °C 7 °C 1031.4 hPa SSE 2.2 km/h 3.2 km/h 83.1% 0.0 mm
23:04 9.6 °C 6.9 °C 1031.4 hPa SSE 0.8 km/h 3.9 km/h 83% 0.0 mm
23:09 9.5 °C 6.8 °C 1031.5 hPa Calm   3.9 km/h 83.4% 0.0 mm
23:14 9.3 °C 6.7 °C 1031.5 hPa Calm   3.7 km/h 84% 0.0 mm
23:19 9.2 °C 6.7 °C 1031.5 hPa Calm   5.6 km/h 84.4% 0.0 mm
23:24 9.1 °C 6.7 °C 1031.6 hPa ONO 1.4 km/h 5.6 km/h 85% 0.0 mm
23:29 9.1 °C 6.8 °C 1031.6 hPa ONO 2.2 km/h 3.2 km/h 85.5% 0.0 mm
23:34 9.1 °C 6.9 °C 1031.6 hPa ONO 0.8 km/h 4.7 km/h 86% 0.0 mm
23:39 9.1 °C 6.9 °C 1031.6 hPa Calm   4.8 km/h 86% 0.0 mm
23:44 9.1 °C 6.9 °C 1031.5 hPa Calm   3.2 km/h 86% 0.0 mm
23:49 9 °C 6.8 °C 1031.5 hPa Calm   2.3 km/h 86% 0.0 mm
23:54 8.9 °C 6.7 °C 1031.5 hPa Calm   1.6 km/h 86% 0.0 mm
23:59 8.9 °C 6.7 °C 1031.4 hPa Calm     86% 0.0 mm
Murcia-Puente Tocinos, Espa?a
Compliments of Weather Underground - 3 mb

La estación de MeteoMurcia.com, publica sus datos en los siguientes proyectos:

Weather Underground PWS IMURCIAP2 Meteoclimatic www.awekas.at

W3Counter
Web Analytics